MDT,Max TemperatureF,Mean TemperatureF,Min TemperatureF,Max Dew PointF,MeanDew PointF,Min DewpointF,Max Humidity, Mean Humidity, Min Humidity, Max Sea Level PressureIn, Mean Sea Level PressureIn, Min Sea Level PressureIn, Max VisibilityMiles, Mean VisibilityMiles, Min VisibilityMiles, Max Wind SpeedMPH, Mean Wind SpeedMPH, Max Gust SpeedMPH,PrecipitationIn, CloudCover, Events, WindDirDegrees
2011-3-1,45,30,15,16,10,5,63,42,20,30.14,30.08,30.00,10,10,9,9,4,16,0.00,0,,261
2011-3-2,45,34,22,21,17,11,71,52,33,30.06,29.98,29.89,10,10,10,10,5,13,0.00,0,,258
2011-3-3,46,38,30,29,25,20,78,61,44,30.02,29.92,29.84,10,10,10,8,3,,T,2,Rain,222
2011-3-4,42,33,24,24,17,8,72,53,34,30.33,30.23,30.04,10,10,10,13,6,,0.00,0,,158
2011-3-5,47,34,20,20,14,8,68,48,28,30.27,30.10,29.98,10,10,10,18,6,36,0.00,1,,287
2011-3-6,34,28,21,29,24,18,92,76,59,29.96,29.87,29.76,10,10,7,10,6,,T,7,,338
2011-3-7,31,25,19,22,17,14,91,77,63,29.93,29.78,29.66,10,9,2,10,4,,T,7,Snow,346
2011-3-8,38,31,23,25,21,14,96,72,47,30.15,29.86,29.67,10,4,1,12,5,,0.17,5,Snow,242
2011-3-9,48,34,20,20,13,6,71,45,19,30.31,30.24,30.16,10,10,10,13,5,22,0.00,0,,231
2011-3-10,60,43,25,29,22,18,68,48,28,30.23,29.98,29.62,10,10,10,36,11,55,T,1,,219
2011-3-11,48,39,30,28,13,6,60,41,21,30.01,29.91,29.73,10,10,10,23,10,37,0.00,0,,251
2011-3-12,46,36,25,23,18,13,63,48,33,30.09,30.04,29.99,10,10,10,8,4,,0.00,0,,242
2011-3-13,50,38,25,22,18,13,75,51,27,30.21,30.15,30.05,10,10,10,12,5,,0.00,1,,174
2011-3-14,58,45,31,27,22,18,63,45,27,30.12,30.02,29.87,10,10,10,20,8,30,0.00,0,,275
2011-3-15,58,43,27,26,22,19,75,52,28,30.10,30.00,29.80,10,10,10,10,6,,0.00,0,,214
2011-3-16,58,48,37,27,26,25,45,40,35,29.77,29.63,29.49,10,10,10,31,15,69,0.00,1,,49
2011-3-17,43,34,24,,,,,,,,,,,,,29,250,37,0.00,,,
2011-3-18,47,32,16,,,,,,,,,,,,,17,,,0.00,,,
2011-3-19,52,40,28,,,,,,,,,,,,,37,,46,T,,,
2011-3-20,53,39,25,,,,,,,,,,,,,33,7,44,0.00,,,
2011-3-21,62,45,27,25,17,10,54,34,14,29.61,29.49,29.42,10,10,10,32,21,51,0.00,0,,207
2011-3-22,48,40,31,21,14,9,52,37,21,29.82,29.57,29.44,10,10,10,31,9,43,0.00,1,,288
2011-3-23,50,36,22,14,9,5,60,38,16,30.04,29.93,29.84,10,10,10,14,5,18,0.00,0,,103
2011-3-24,48,38,27,20,16,12,58,46,34,29.85,29.70,29.57,10,10,10,17,5,20,0.00,1,,306
2011-3-25,49,39,28,25,20,13,59,45,31,29.70,29.62,29.53,10,10,10,14,6,20,0.00,4,,355
2011-3-26,50,37,23,18,10,1,68,41,13,29.87,29.74,29.62,10,10,10,22,10,27,0.00,1,,218
2011-3-27,50,39,28,21,11,2,54,36,17,29.73,29.62,29.54,10,10,10,24,10,40,0.00,2,,271
2011-3-28,45,33,21,30,20,8,92,58,24,30.04,29.87,29.72,10,6,1,16,7,29,0.08,5,Snow,300
2011-3-29,49,34,19,25,16,3,78,47,15,30.22,30.06,29.93,10,10,10,16,6,24,0.00,1,,254
2011-3-30,56,42,28,28,21,16,69,46,22,29.99,29.88,29.78,10,10,10,9,4,20,0.00,1,,81
2011-3-31,69,52,35,30,26,20,70,43,16,29.83,29.76,29.66,10,10,10,27,8,38,0.00,2,,166